createdAt,value
2019-01-02T16:51:07.969Z,74.20
2019-01-02T16:53:40.086Z,73.50
2019-01-02T16:56:12.198Z,73.20
2019-01-02T16:58:44.856Z,71.40
2019-01-02T17:01:16.975Z,69.70
2019-01-02T17:03:49.106Z,69.80
2019-01-02T17:06:22.157Z,68.60
2019-01-02T17:08:54.393Z,65.70
2019-01-02T17:11:26.534Z,65.50
2019-01-02T17:13:58.662Z,61.70
2019-01-02T17:16:30.766Z,62.20
2019-01-02T17:19:02.914Z,61.10
2019-01-02T17:21:35.036Z,59.50
2019-01-02T17:24:07.894Z,60.80
2019-01-02T17:26:39.998Z,59.30
2019-01-02T17:29:12.423Z,56.80
2019-01-02T17:31:44.669Z,56.00
2019-01-02T17:34:16.845Z,56.40
2019-01-02T17:36:49.002Z,55.70
2019-01-02T17:39:21.146Z,55.40
2019-01-02T17:41:53.482Z,55.00
2019-01-02T17:44:25.659Z,55.00
2019-01-02T17:46:57.786Z,52.00
2019-01-02T17:49:29.922Z,51.00
2019-01-02T17:52:02.055Z,49.70
2019-01-02T17:54:34.307Z,50.90
2019-01-02T17:57:06.439Z,50.80
2019-01-02T17:59:38.892Z,49.70
2019-01-02T18:02:12.283Z,50.40
2019-01-02T18:04:44.616Z,49.10
2019-01-02T18:07:16.956Z,47.50
2019-01-02T18:09:49.302Z,47.30
2019-01-02T18:12:21.742Z,49.20
2019-01-02T18:14:54.059Z,46.60
2019-01-02T18:17:26.434Z,46.00
2019-01-02T18:19:59.300Z,43.20
2019-01-02T18:22:31.623Z,43.00
2019-01-02T18:25:04.343Z,41.40
2019-01-02T18:27:36.790Z,42.40
2019-01-02T18:30:12.016Z,39.30
2019-01-02T18:32:44.389Z,39.10
2019-01-02T18:35:16.759Z,38.30
2019-01-02T18:37:50.173Z,37.50
2019-01-02T18:40:22.545Z,37.10
2019-01-02T18:42:55.762Z,37.80
2019-01-02T18:45:28.125Z,34.70
2019-01-02T18:48:00.361Z,33.40
2019-01-02T18:50:32.651Z,29.80
2019-01-02T18:53:05.562Z,34.10
2019-01-02T18:55:38.267Z,34.80
2019-01-02T18:58:10.477Z,30.40
2019-01-02T19:00:42.794Z,28.10
2019-01-02T19:03:14.922Z,25.40
2019-01-02T19:05:47.098Z,25.00
2019-01-02T19:08:19.227Z,24.30
2019-01-02T19:10:51.468Z,22.90
2019-01-02T19:13:23.578Z,22.50
2019-01-02T19:15:55.767Z,22.90
2019-01-02T19:18:27.914Z,21.40
2019-01-02T19:21:00.173Z,20.30
2019-01-02T19:23:32.327Z,21.20
2019-01-02T19:26:04.873Z,22.20
2019-01-02T19:28:37.013Z,20.60
2019-01-02T19:31:09.376Z,20.40
2019-01-02T19:33:41.543Z,19.60
2019-01-02T19:36:13.694Z,18.90
2019-01-02T19:38:45.833Z,20.30
2019-01-02T19:41:17.937Z,19.50
2019-01-02T19:43:50.106Z,19.90
2019-01-02T19:46:22.261Z,17.80
2019-01-02T19:48:54.436Z,16.70
2019-01-02T19:51:26.563Z,16.70
2019-01-02T19:53:58.725Z,17.10
2019-01-02T19:56:30.851Z,16.40
2019-01-02T19:59:03.109Z,16.60
2019-01-02T20:01:35.448Z,16.60
2019-01-02T20:04:07.589Z,17.40
2019-01-02T20:06:39.818Z,16.20
2019-01-02T20:09:11.971Z,15.60
2019-01-02T20:11:44.132Z,15.10
2019-01-02T20:14:16.257Z,15.10
2019-01-02T20:16:48.392Z,15.60
2019-01-02T20:19:20.697Z,15.00
2019-01-02T20:21:52.862Z,15.00
2019-01-02T20:24:24.989Z,14.50
2019-01-02T20:26:57.493Z,14.40
2019-01-02T20:29:29.626Z,13.80
2019-01-02T20:32:04.336Z,14.80
2019-01-02T20:34:35.525Z,15.10
2019-01-02T20:37:07.675Z,15.00
2019-01-02T20:39:40.119Z,15.30
2019-01-02T20:42:12.258Z,14.40
2019-01-02T20:44:44.374Z,15.40
2019-01-02T20:47:16.865Z,16.30
2019-01-02T20:49:48.983Z,16.00
2019-01-02T20:52:21.126Z,15.60
2019-01-02T20:54:53.264Z,17.70
2019-01-02T20:57:25.452Z,17.40
2019-01-02T20:59:57.586Z,18.40
2019-01-02T21:02:30.386Z,19.10
2019-01-02T21:05:02.530Z,19.40
2019-01-02T21:07:34.692Z,20.70
2019-01-02T21:10:08.359Z,19.30
2019-01-02T21:12:40.877Z,18.60
2019-01-02T21:15:13.242Z,17.00
2019-01-02T21:17:45.474Z,18.30
2019-01-02T21:20:17.950Z,18.70
2019-01-02T21:22:50.097Z,19.50
2019-01-02T21:25:22.238Z,19.10
2019-01-02T21:27:54.406Z,20.70
2019-01-02T21:30:26.544Z,19.60
2019-01-02T21:32:58.858Z,19.60
2019-01-02T21:35:30.990Z,20.20
2019-01-02T21:38:03.147Z,21.60
2019-01-02T21:40:35.615Z,21.70
2019-01-02T21:43:08.098Z,19.70
2019-01-02T21:45:40.214Z,18.50
2019-01-02T21:48:12.358Z,18.00
2019-01-02T21:50:45.548Z,16.30
2019-01-02T21:53:18.002Z,17.30
2019-01-02T21:55:50.202Z,19.80
2019-01-02T21:58:22.334Z,18.70
2019-01-02T22:00:54.484Z,17.70
2019-01-02T22:03:26.884Z,18.90
2019-01-02T22:05:59.072Z,19.40
2019-01-02T22:08:31.325Z,20.40
2019-01-02T22:11:03.466Z,23.10
2019-01-02T22:13:36.622Z,24.50
2019-01-02T22:16:09.252Z,25.30
2019-01-02T22:18:41.405Z,26.10
2019-01-02T22:21:14.238Z,26.80
2019-01-02T22:23:46.361Z,27.40
2019-01-02T22:26:18.509Z,27.90
2019-01-02T22:28:51.183Z,28.80
2019-01-02T22:31:23.588Z,29.70
2019-01-02T22:33:55.926Z,31.10
2019-01-02T22:36:28.207Z,31.90
2019-01-02T22:39:00.385Z,32.70
2019-01-02T22:41:33.887Z,33.20
2019-01-02T22:44:06.038Z,33.60
2019-01-02T22:46:38.236Z,33.20
2019-01-02T22:49:10.395Z,34.50
2019-01-02T22:51:42.566Z,36.30
2019-01-02T22:54:15.169Z,36.70
2019-01-02T22:56:47.359Z,37.00
2019-01-02T22:59:19.797Z,36.40
2019-01-02T23:01:53.683Z,36.20
2019-01-02T23:04:27.376Z,35.70
2019-01-02T23:07:00.937Z,36.70
2019-01-02T23:09:40.064Z,37.80
2019-01-02T23:12:16.365Z,36.60
2019-01-02T23:14:52.528Z,36.50
2019-01-02T23:17:28.599Z,34.30
2019-01-02T23:20:04.977Z,33.60
2019-01-02T23:22:41.293Z,33.20
2019-01-02T23:25:20.594Z,32.00
2019-01-02T23:27:54.187Z,30.10
2019-01-02T23:30:44.871Z,32.00
2019-01-02T23:33:18.462Z,34.20
2019-01-02T23:36:01.757Z,37.10
2019-01-02T23:38:38.124Z,36.00
2019-01-02T23:41:20.584Z,35.20
2019-01-02T23:44:02.986Z,37.30
2019-01-02T23:46:39.339Z,38.90
2019-01-02T23:49:15.192Z,39.60
2019-01-02T23:52:00.482Z,40.60
2019-01-02T23:54:50.090Z,40.60
2019-01-02T23:57:39.949Z,40.50
